Decoded Metar for CYUY (ROUYN in QC, CANADA) (IATA:YUY) | Meteo·Mobile Aviation Weather
aviador You're here:

CYUY Decoded Metar

ROUYN in QC, CANADA
Report Time2018-12-17 08:00:00
UTC Time2018-12-17 08:19:24
Flight Rules mvfr MVFR
Wind260° at 06 kt
W.Decomp.*RWY 26: 5.8 kt HW 1.3 kt RCW
W.Rank260° ranks 15
Current wind is below 260° avg. (7.2)
Visibility9999 m
Phenomena:Light Snow
Clouds:Few 009 Hf
Broken 021 Hf
Overcast 033 Hf
Expected CloudBase > 400 ft AGL from Temp-Dew spread
Ceiling2,100 ft
Temp-2°C (ISA -15)
Dew Point-3°C (93% RH)
AAT-6.5°C
QNH1004 hPa
Density Alt-472 ft
Elevation988 ft
Report Wrong Elevation
Raw Report
CYUY 170800Z 26006KT 15SM -SN FEW009 BKN021 OVC033 M02/M03 A2964
RMK SF1SC4SC3 SLP053=

Extra information for CYUY:More info

Metar Taf Metar & Taf Last 4 Metars F.Rules Stats Wind Profile Meteogram Temp Stats Airport Information Weather charts Add Link Nearby VenuesMetar ALERT Operation Metar Decoded Social comments